Time;durP1;ratioP1;P1;durP2;ratioP2;P2;SDS_P1;SDS_P2;PMS_P1;PMS_P2;Temp;Humidity;BMP_temperature;BMP_pressure;BME280_temperature;BME280_humidity;BME280_pressure;Samples;Min_cycle;Max_cycle;Signal;HPM_P1;HPM_P2
2022/01/18 00:01:53;;;;;;;30.00;3.05;;;3.80;99.90;;;;;;5052554;28;20017;-82
2022/01/18 00:04:20;;;;;;;25.08;3.10;;;4.00;99.90;;;;;;5052684;28;20028;-82
2022/01/18 00:06:49;;;;;;;34.58;3.47;;;3.90;99.90;;;;;;5051260;28;20469;-82
2022/01/18 00:09:20;;;;;;;21.73;3.37;;;3.90;99.90;;;;;;5052712;28;20032;-82
2022/01/18 00:11:52;;;;;;;;;;;3.80;99.90;;;;;;5051372;28;20127;-82
2022/01/18 00:14:39;;;;;;;38.17;4.55;;;3.90;99.90;;;;;;5050949;28;20039;-82
2022/01/18 00:17:16;;;;;;;30.60;3.20;;;3.70;99.90;;;;;;5052553;28;20017;-82
2022/01/18 00:19:52;;;;;;;25.20;3.08;;;3.90;99.90;;;;;;5052538;28;20025;-82
2022/01/18 00:22:18;;;;;;;33.47;3.60;;;3.80;99.90;;;;;;5052773;28;20025;-82
2022/01/18 00:24:44;;;;;;;32.85;3.75;;;3.70;99.90;;;;;;5051225;28;20540;-82
2022/01/18 00:27:14;;;;;;;39.70;4.47;;;3.80;99.90;;;;;;5050756;28;20200;-82
2022/01/18 00:29:50;;;;;;;31.10;3.92;;;3.80;99.90;;;;;;5050830;28;20104;-81
2022/01/18 00:32:29;;;;;;;38.63;3.60;;;3.80;99.90;;;;;;5051147;28;20071;-82
2022/01/18 00:34:56;;;;;;;31.20;3.17;;;3.70;99.90;;;;;;5050868;28;20033;-82
2022/01/18 00:37:35;;;;;;;25.92;2.47;;;3.60;99.90;;;;;;5052523;28;20017;-82
2022/01/18 00:40:01;;;;;;;37.80;3.20;;;3.70;99.90;;;;;;5052441;28;20032;-82
2022/01/18 00:42:26;;;;;;;23.13;2.58;;;3.60;99.90;;;;;;5050884;28;20045;-82
2022/01/18 00:44:52;;;;;;;28.98;3.20;;;3.50;99.90;;;;;;5050647;28;20021;-82
2022/01/18 00:47:18;;;;;;;29.08;3.50;;;3.60;99.90;;;;;;5052151;28;20100;-82
2022/01/18 00:49:46;;;;;;;27.60;3.25;;;3.70;99.90;;;;;;5050851;28;20480;-82
2022/01/18 00:52:14;;;;;;;28.58;4.07;;;3.70;99.90;;;;;;5050689;28;20026;-82
2022/01/18 00:54:43;;;;;;;29.63;3.03;;;3.90;99.90;;;;;;5051859;28;20021;-82
2022/01/18 00:57:09;;;;;;;28.47;4.03;;;4.10;99.90;;;;;;5052343;28;20059;-82
2022/01/18 00:59:35;;;;;;;26.15;3.20;;;4.00;99.90;;;;;;5051835;28;20258;-82
2022/01/18 01:02:00;;;;;;;31.38;4.18;;;4.10;99.90;;;;;;5042404;28;20499;-82
2022/01/18 01:04:29;;;;;;;27.98;3.72;;;4.10;99.90;;;;;;5050390;28;20029;-82
2022/01/18 01:06:55;;;;;;;32.35;4.10;;;4.00;99.90;;;;;;5050157;28;20052;-82
2022/01/18 01:09:20;;;;;;;27.52;3.50;;;4.00;99.90;;;;;;5051555;28;20020;-82
2022/01/18 01:11:47;;;;;;;27.38;3.08;;;4.00;99.90;;;;;;5053930;28;20025;-82
2022/01/18 01:14:21;;;;;;;25.77;4.15;;;4.10;99.90;;;;;;5051989;28;20109;-82
2022/01/18 01:33:27;;;;;;;24.73;2.80;;;3.90;99.90;;;;;;5055191;28;20035;-82
2022/01/18 01:36:15;;;;;;;34.85;4.80;;;4.10;99.90;;;;;;5035016;28;20191;-82
2022/01/18 01:46:38;;;;;;;37.38;3.85;;;3.80;99.90;;;;;;5035067;28;20042;-82
2022/01/18 01:49:09;;;;;;;34.88;3.72;;;3.70;99.90;;;;;;5033640;28;20025;-82
2022/01/18 01:51:34;;;;;;;21.48;2.75;;;4.00;99.90;;;;;;5053338;28;20072;-82
2022/01/18 01:54:03;;;;;;;28.63;2.80;;;3.80;99.90;;;;;;5055102;28;20765;-82
2022/01/18 01:56:30;;;;;;;33.17;3.22;;;3.80;99.90;;;;;;5053293;28;20029;-82
2022/01/18 01:58:55;;;;;;;20.92;2.83;;;3.80;99.90;;;;;;5054517;28;20029;-82
2022/01/18 02:01:21;;;;;;;20.02;2.60;;;3.70;99.90;;;;;;5054399;28;20412;-82
2022/01/18 02:03:48;;;;;;;19.42;2.80;;;3.70;99.90;;;;;;5053048;28;20120;-82
2022/01/18 02:06:14;;;;;;;27.20;2.97;;;3.80;99.90;;;;;;5053349;28;20024;-82
2022/01/18 02:08:39;;;;;;;21.65;5.07;;;3.90;99.90;;;;;;5053228;28;20055;-82
2022/01/18 02:11:05;;;;;;;18.85;2.65;;;3.90;99.90;;;;;;5054537;28;20628;-82
2022/01/18 02:13:32;;;;;;;17.92;2.80;;;3.80;99.90;;;;;;5052905;28;20055;-82
2022/01/18 02:23:55;;;;;;;21.55;2.95;;;4.10;99.90;;;;;;5054138;28;20572;-82
2022/01/18 02:26:21;;;;;;;27.08;2.35;;;4.10;99.90;;;;;;5054025;28;20025;-82
2022/01/18 02:28:46;;;;;;;23.52;2.53;;;4.20;99.90;;;;;;5052725;28;20024;-81
2022/01/18 02:31:12;;;;;;;20.70;2.40;;;4.10;99.90;;;;;;5052580;28;20033;-82
2022/01/18 02:33:38;;;;;;;20.10;2.55;;;4.10;99.90;;;;;;5052955;28;20022;-82
2022/01/18 02:36:07;;;;;;;28.45;2.83;;;4.00;99.90;;;;;;5052774;28;20112;-83
2022/01/18 02:38:33;;;;;;;21.63;2.38;;;4.00;99.90;;;;;;5053892;28;20090;-82
2022/01/18 02:40:58;;;;;;;26.63;2.58;;;4.00;99.90;;;;;;5052536;28;20468;-82
2022/01/18 02:46:10;;;;;;;28.85;2.70;;;3.80;99.90;;;;;;5054014;28;20071;-82
2022/01/18 02:48:36;;;;;;;17.98;2.28;;;3.90;99.90;;;;;;5053910;28;20047;-82
2022/01/18 02:51:02;;;;;;;29.88;3.50;;;4.00;99.90;;;;;;5052416;28;20473;-82
2022/01/18 02:53:28;;;;;;;27.75;2.15;;;3.90;99.90;;;;;;5052312;28;20469;-82
2022/01/18 02:55:55;;;;;;;19.33;1.77;;;3.90;99.90;;;;;;5053486;28;20029;-82
2022/01/18 02:58:30;;;;;;;39.35;2.80;;;3.70;99.90;;;;;;5052723;28;20121;-82
2022/01/18 03:03:34;;;;;;;18.02;1.90;;;4.00;99.90;;;;;;5053760;28;20064;-82
2022/01/18 03:06:01;;;;;;;20.40;2.85;;;4.10;99.90;;;;;;5052569;28;20032;-81
2022/01/18 03:08:27;;;;;;;17.90;2.58;;;4.30;99.90;;;;;;5053818;28;20028;-82
2022/01/18 03:10:53;;;;;;;19.77;2.83;;;4.50;99.90;;;;;;5051748;28;20029;-82
2022/01/18 03:13:19;;;;;;;18.95;2.00;;;4.50;99.90;;;;;;5052851;28;20111;-82
2022/01/18 03:15:45;;;;;;;19.70;3.60;;;4.50;99.90;;;;;;5052064;28;20036;-82
2022/01/18 03:18:11;;;;;;;21.42;2.67;;;4.70;99.90;;;;;;5053340;28;20017;-82
2022/01/18 03:20:38;;;;;;;30.73;3.53;;;4.80;99.90;;;;;;5053162;28;20032;-82
2022/01/18 03:23:09;;;;;;;25.90;2.95;;;4.80;99.90;;;;;;5053266;28;20384;-82
2022/01/18 03:28:06;;;;;;;21.65;2.55;;;5.00;99.90;;;;;;5052999;28;20496;-82
2022/01/18 03:30:44;;;;;;;23.85;2.70;;;5.00;99.90;;;;;;5052462;28;20369;-82
2022/01/18 03:33:21;;;;;;;26.75;2.97;;;5.10;99.90;;;;;;5052763;28;20048;-82
2022/01/18 03:35:48;;;;;;;21.25;2.38;;;5.10;99.90;;;;;;5051981;28;20056;-82
2022/01/18 03:38:15;;;;;;;16.67;2.55;;;5.20;99.90;;;;;;5052867;28;20039;-82
2022/01/18 03:40:41;;;;;;;20.70;2.15;;;5.10;99.90;;;;;;5051441;28;20384;-82
2022/01/18 03:43:11;;;;;;;28.05;3.50;;;5.30;99.90;;;;;;5050040;28;20039;-82
2022/01/18 03:45:41;;;;;;;22.27;2.25;;;5.30;99.90;;;;;;5052522;28;20025;-82
2022/01/18 03:48:12;;;;;;;23.15;3.28;;;5.30;99.90;;;;;;5052541;28;20410;-82
2022/01/18 03:50:39;;;;;;;14.52;2.20;;;5.30;99.90;;;;;;5051210;28;20033;-82
2022/01/18 03:53:05;;;;;;;23.38;2.60;;;5.40;99.90;;;;;;5051608;28;20083;-82
2022/01/18 03:55:30;;;;;;;21.35;2.22;;;5.40;99.90;;;;;;5051236;28;20024;-82
2022/01/18 03:57:56;;;;;;;21.55;3.45;;;5.40;99.90;;;;;;5052308;28;20048;-82
2022/01/18 04:00:25;;;;;;;21.88;2.05;;;5.50;99.90;;;;;;5051135;28;20021;-82
2022/01/18 04:02:51;;;;;;;21.52;2.95;;;5.30;99.90;;;;;;5052659;28;20043;-82
2022/01/18 04:05:17;;;;;;;18.25;2.35;;;5.40;99.90;;;;;;5051476;28;20028;-82
2022/01/18 04:07:43;;;;;;;14.93;1.95;;;5.40;99.90;;;;;;5051509;28;20376;-82
2022/01/18 04:10:10;;;;;;;22.00;2.50;;;5.40;99.90;;;;;;5052443;28;20025;-82
2022/01/18 04:12:36;;;;;;;20.10;2.67;;;5.40;99.90;;;;;;5050771;28;20053;-82
2022/01/18 04:15:04;;;;;;;24.98;3.70;;;5.60;99.90;;;;;;5051586;28;20069;-82
2022/01/18 04:26:02;;;;;;;28.52;2.80;;;5.50;99.90;;;;;;5030908;28;20037;-82
2022/01/18 04:28:43;;;;;;;23.73;2.85;;;5.60;99.90;;;;;;5047609;28;20029;-82
2022/01/18 04:31:10;;;;;;;19.80;3.50;;;5.50;99.90;;;;;;5047478;28;20037;-82
2022/01/18 04:33:38;;;;;;;14.65;2.40;;;5.50;99.90;;;;;;5047827;28;20049;-82
2022/01/18 04:36:05;;;;;;;10.95;2.40;;;5.50;99.90;;;;;;5047521;28;20022;-81
2022/01/18 04:38:31;;;;;;;25.83;2.47;;;5.70;99.90;;;;;;5042487;28;20378;-82
2022/01/18 04:41:05;;;;;;;30.70;4.30;;;5.40;99.90;;;;;;5052454;28;20488;-82
2022/01/18 04:49:00;;;;;;;25.92;3.97;;;5.20;99.90;;;;;;5056228;28;20035;-82
2022/01/18 04:51:25;;;;;;;305.00;20.27;;;5.20;99.90;;;;;;5055791;28;20034;-82
2022/01/18 04:53:57;;;;;;;95.15;8.05;;;5.30;99.90;;;;;;5054302;28;20120;-81
2022/01/18 04:57:51;;;;;;;35.80;4.72;;;5.20;99.90;;;;;;5054527;28;20078;-82
2022/01/18 04:59:15;;;;;;;44.22;4.72;;;5.20;99.90;;;;;;5055676;28;20036;-82
2022/01/18 05:01:44;;;;;;;36.22;4.20;;;5.30;99.90;;;;;;5055632;28;20116;-82
2022/01/18 05:04:10;;;;;;;36.83;4.50;;;5.40;99.90;;;;;;5054203;28;20576;-82
2022/01/18 05:06:36;;;;;;;26.20;4.05;;;5.40;99.90;;;;;;5054330;28;20025;-82
2022/01/18 05:09:09;;;;;;;68.93;6.20;;;5.50;99.90;;;;;;5054245;28;20037;-82
2022/01/18 05:11:42;;;;;;;25.90;3.72;;;5.40;99.90;;;;;;5055497;28;20389;-82
2022/01/18 05:19:24;;;;;;;43.03;4.57;;;5.50;99.90;;;;;;5055445;28;20044;-80
2022/01/18 05:24:27;;;;;;;37.53;4.47;;;5.60;99.90;;;;;;5046637;28;20022;-80
2022/01/18 05:26:54;;;;;;;28.38;4.07;;;5.60;99.90;;;;;;5036209;28;20113;-80
2022/01/18 05:29:22;;;;;;;41.13;4.28;;;5.60;99.90;;;;;;5051515;28;20116;-80
2022/01/18 05:31:48;;;;;;;22.67;2.92;;;5.60;99.90;;;;;;5051380;28;20037;-82
2022/01/18 05:34:14;;;;;;;36.47;4.47;;;5.70;99.90;;;;;;5036297;28;20096;-82
2022/01/18 05:36:40;;;;;;;28.55;3.83;;;5.70;99.90;;;;;;5053870;28;20048;-81
2022/01/18 05:39:09;;;;;;;34.10;4.82;;;5.80;99.90;;;;;;5043429;28;20124;-82
2022/01/18 05:41:38;;;;;;;435.73;28.58;;;5.70;99.90;;;;;;5035768;28;20018;-82
2022/01/18 05:44:05;;;;;;;40.20;5.25;;;5.70;99.90;;;;;;5034734;28;20026;-82
2022/01/18 05:46:31;;;;;;;32.58;4.25;;;5.80;99.90;;;;;;5046527;28;20436;-82
2022/01/18 05:49:00;;;;;;;32.70;4.57;;;5.80;99.90;;;;;;5055197;28;20473;-82
2022/01/18 05:51:29;;;;;;;45.37;4.40;;;5.80;99.90;;;;;;5054835;28;20021;-82
2022/01/18 05:53:55;;;;;;;29.15;4.90;;;5.70;99.90;;;;;;5053947;28;20044;-82
2022/01/18 05:56:20;;;;;;;38.92;4.65;;;5.70;99.90;;;;;;5054517;28;20730;-80
2022/01/18 05:58:48;;;;;;;35.63;5.00;;;5.80;99.90;;;;;;5055759;28;20460;-82
2022/01/18 06:01:22;;;;;;;40.40;5.22;;;5.80;99.90;;;;;;5054436;28;20484;-82
2022/01/18 06:09:08;;;;;;;59.85;5.70;;;5.90;99.90;;;;;;5055437;28;20032;-81
2022/01/18 06:11:34;;;;;;;50.83;5.80;;;5.80;99.90;;;;;;5053633;28;20113;-81
2022/01/18 06:14:00;;;;;;;62.92;6.40;;;6.10;99.90;;;;;;5053905;28;20025;-81
2022/01/18 06:16:41;;;;;;;50.25;5.18;;;5.70;99.90;;;;;;5053739;28;20111;-81
2022/01/18 06:19:06;;;;;;;59.58;5.63;;;5.70;99.90;;;;;;5053858;28;20032;-81
2022/01/18 06:21:32;;;;;;;32.90;4.95;;;5.80;99.90;;;;;;5055225;28;20029;-81
2022/01/18 06:23:58;;;;;;;23.95;3.45;;;5.80;99.90;;;;;;5053815;28;20020;-80
2022/01/18 06:26:23;;;;;;;25.08;3.70;;;5.80;99.90;;;;;;5055249;28;20100;-81
2022/01/18 06:28:49;;;;;;;41.15;4.80;;;5.90;99.90;;;;;;5055162;28;20024;-81
2022/01/18 06:31:14;;;;;;;58.13;6.57;;;5.80;99.90;;;;;;5051455;28;20591;-82
2022/01/18 06:33:40;;;;;;;39.45;3.78;;;5.90;99.90;;;;;;5051186;28;20028;-81
2022/01/18 06:36:06;;;;;;;37.03;4.15;;;5.90;99.90;;;;;;5050856;28;20028;-82
2022/01/18 06:38:32;;;;;;;43.60;4.45;;;5.80;99.90;;;;;;5050964;28;20025;-81
2022/01/18 06:40:58;;;;;;;32.80;3.97;;;5.90;99.90;;;;;;5051360;28;20017;-82
2022/01/18 06:43:23;;;;;;;39.95;4.10;;;5.80;99.90;;;;;;5051147;28;20119;-81
2022/01/18 06:45:49;;;;;;;70.43;5.15;;;5.80;99.90;;;;;;5051980;28;20032;-81
2022/01/18 06:48:14;;;;;;;64.05;4.75;;;5.70;99.90;;;;;;5045629;28;20032;-81
2022/01/18 06:50:40;;;;;;;42.25;3.50;;;5.70;99.90;;;;;;5050718;28;20538;-81
2022/01/18 06:53:06;;;;;;;36.20;2.25;;;5.80;99.90;;;;;;5050861;28;20029;-81
2022/01/18 06:55:32;;;;;;;19.92;1.67;;;5.80;99.90;;;;;;5045327;28;20474;-81
2022/01/18 06:57:58;;;;;;;6.40;1.30;;;5.80;99.90;;;;;;5035600;28;20060;-81
2022/01/18 07:00:23;;;;;;;13.30;2.08;;;5.70;99.90;;;;;;5030661;28;20025;-82
2022/01/18 07:02:49;;;;;;;29.73;2.25;;;5.70;99.90;;;;;;5032194;28;20118;-82
2022/01/18 07:05:15;;;;;;;19.13;2.33;;;5.70;99.90;;;;;;5036056;28;20033;-82
2022/01/18 07:07:41;;;;;;;17.17;2.08;;;5.80;99.90;;;;;;5050368;28;20032;-81
2022/01/18 07:10:08;;;;;;;20.13;2.25;;;5.70;99.90;;;;;;5051882;28;20307;-82
2022/01/18 07:12:35;;;;;;;27.05;2.72;;;5.70;99.90;;;;;;5033793;28;20049;-82
2022/01/18 07:15:07;;;;;;;11.25;2.28;;;5.60;99.90;;;;;;5051336;28;20540;-81
2022/01/18 07:17:34;;;;;;;24.80;2.70;;;5.70;99.90;;;;;;5050160;28;20439;-81
2022/01/18 07:20:00;;;;;;;12.57;1.90;;;5.60;99.90;;;;;;5050290;28;20035;-81
2022/01/18 07:22:26;;;;;;;13.48;1.77;;;5.50;99.90;;;;;;5050086;28;20028;-82
2022/01/18 07:24:56;;;;;;;13.13;1.73;;;5.60;99.90;;;;;;5050091;28;20090;-82
2022/01/18 07:27:22;;;;;;;14.30;1.17;;;5.50;99.90;;;;;;5050126;28;20063;-81
2022/01/18 07:29:48;;;;;;;10.38;1.70;;;5.50;99.90;;;;;;5048663;28;20079;-82
2022/01/18 07:32:14;;;;;;;3.75;1.38;;;5.50;99.90;;;;;;5049674;28;20021;-82
2022/01/18 07:34:48;;;;;;;7.00;1.20;;;5.60;99.90;;;;;;5051324;28;20397;-82
2022/01/18 07:37:13;;;;;;;7.82;1.80;;;5.50;99.90;;;;;;5051412;28;20083;-81
2022/01/18 07:39:39;;;;;;;14.82;3.97;;;5.60;99.90;;;;;;5051580;28;20021;-81
2022/01/18 07:42:05;;;;;;;7.85;3.10;;;5.60;99.90;;;;;;5053920;28;20534;-81
2022/01/18 07:44:31;;;;;;;7.13;2.00;;;5.50;99.90;;;;;;5053591;28;20472;-82
2022/01/18 07:46:57;;;;;;;6.82;1.77;;;5.50;99.90;;;;;;5053412;28;20024;-82
2022/01/18 07:49:22;;;;;;;8.90;4.30;;;5.50;99.90;;;;;;5049751;28;20540;-82
2022/01/18 07:51:48;;;;;;;4.90;1.40;;;5.60;99.90;;;;;;5049863;28;20124;-82
2022/01/18 07:54:13;;;;;;;2.05;0.77;;;5.50;99.90;;;;;;5049499;28;20047;-82
2022/01/18 07:56:41;;;;;;;14.65;1.08;;;5.50;99.90;;;;;;5049817;28;20021;-82
2022/01/18 07:59:09;;;;;;;4.88;1.20;;;5.50;99.90;;;;;;5049897;28;20017;-81
2022/01/18 08:01:35;;;;;;;10.93;1.92;;;5.60;99.90;;;;;;5049315;28;20386;-81
2022/01/18 08:04:00;;;;;;;5.80;2.00;;;5.70;99.90;;;;;;5049740;28;20028;-82
2022/01/18 08:06:26;;;;;;;9.38;2.13;;;5.70;99.90;;;;;;5049574;28;20025;-81
2022/01/18 08:08:51;;;;;;;8.02;3.03;;;5.70;99.90;;;;;;5049630;28;20376;-81
2022/01/18 08:11:17;;;;;;;12.05;1.42;;;5.80;99.90;;;;;;5049364;28;20099;-83
2022/01/18 08:13:47;;;;;;;7.82;1.75;;;5.90;99.90;;;;;;5049348;28;20056;-82
2022/01/18 08:18:58;;;;;;;13.95;2.53;;;5.90;99.90;;;;;;5054911;28;20082;-81
2022/01/18 08:21:24;;;;;;;14.90;3.28;;;5.90;99.90;;;;;;5053622;28;20017;-82
2022/01/18 08:23:50;;;;;;;22.48;3.33;;;6.00;99.90;;;;;;5054109;28;20518;-82
2022/01/18 08:26:17;;;;;;;21.33;2.67;;;5.90;99.90;;;;;;5053600;28;20024;-81
2022/01/18 08:28:42;;;;;;;11.18;2.10;;;5.90;99.90;;;;;;5053332;28;20036;-82
2022/01/18 08:31:08;;;;;;;11.50;2.17;;;6.00;99.90;;;;;;5053261;28;20025;-81
2022/01/18 08:33:34;;;;;;;10.68;2.22;;;6.00;99.90;;;;;;5055443;28;20029;-81
2022/01/18 08:36:00;;;;;;;9.05;2.20;;;5.90;99.90;;;;;;5054972;28;20025;-81
2022/01/18 08:38:30;;;;;;;9.50;1.80;;;6.10;99.90;;;;;;5050541;28;20338;-82
2022/01/18 08:40:58;;;;;;;8.77;1.67;;;6.10;99.90;;;;;;5035949;28;20021;-81
2022/01/18 08:43:24;;;;;;;11.50;1.67;;;6.10;99.90;;;;;;5037821;28;20025;-82
2022/01/18 08:45:50;;;;;;;13.60;1.83;;;6.10;99.90;;;;;;5041586;28;20112;-82
2022/01/18 08:48:16;;;;;;;9.38;1.90;;;6.00;99.90;;;;;;5035520;28;20109;-81
2022/01/18 08:50:41;;;;;;;5.85;1.67;;;6.30;99.90;;;;;;5032816;28;20041;-81
2022/01/18 08:53:07;;;;;;;10.07;1.42;;;6.20;99.90;;;;;;5036256;28;20025;-81
2022/01/18 08:55:34;;;;;;;9.15;1.80;;;6.20;99.90;;;;;;5053251;28;20025;-81
2022/01/18 08:58:00;;;;;;;6.35;1.50;;;6.20;99.90;;;;;;5053144;28;20021;-80
2022/01/18 09:00:26;;;;;;;13.07;1.95;;;6.10;99.90;;;;;;5054300;28;20056;-79
2022/01/18 09:02:52;;;;;;;23.27;2.10;;;6.20;99.90;;;;;;5053842;28;20063;-79
2022/01/18 09:05:21;;;;;;;9.38;1.80;;;6.30;99.90;;;;;;5054272;28;20021;-79
2022/01/18 09:07:47;;;;;;;11.35;1.52;;;6.40;99.90;;;;;;5054020;28;20427;-79
2022/01/18 09:10:13;;;;;;;2.20;1.10;;;6.30;99.90;;;;;;5052354;28;20037;-79
2022/01/18 09:12:38;;;;;;;3.15;1.20;;;6.20;99.90;;;;;;5036186;28;20044;-79
2022/01/18 09:15:07;;;;;;;6.22;1.10;;;6.40;99.90;;;;;;5037810;28;20026;-79
2022/01/18 09:17:34;;;;;;;11.00;1.20;;;6.40;99.90;;;;;;5053869;28;20048;-79
2022/01/18 09:20:05;;;;;;;4.00;1.17;;;6.50;99.90;;;;;;5056234;28;20025;-79
2022/01/18 09:22:32;;;;;;;4.65;1.10;;;6.50;99.90;;;;;;5054008;28;20538;-79
2022/01/18 09:24:58;;;;;;;4.65;0.98;;;6.60;99.90;;;;;;5053895;28;20060;-78
2022/01/18 09:27:24;;;;;;;1.17;0.70;;;6.70;99.90;;;;;;5053134;28;20425;-81
2022/01/18 09:29:49;;;;;;;5.22;0.50;;;6.60;99.90;;;;;;5051563;28;20091;-80
2022/01/18 09:32:16;;;;;;;3.22;0.73;;;6.60;99.90;;;;;;5048060;28;20047;-81
2022/01/18 09:34:42;;;;;;;5.28;1.10;;;6.50;99.90;;;;;;5052984;28;20496;-82
2022/01/18 09:37:07;;;;;;;7.07;1.17;;;6.70;99.90;;;;;;5052353;28;20075;-81
2022/01/18 09:39:33;;;;;;;3.00;0.80;;;6.80;99.90;;;;;;5052182;28;20017;-81
2022/01/18 09:42:03;;;;;;;6.72;0.93;;;6.80;99.90;;;;;;5051744;28;20550;-82
2022/01/18 09:44:29;;;;;;;12.17;1.33;;;6.80;99.90;;;;;;5032434;28;20025;-82
2022/01/18 09:46:55;;;;;;;2.90;1.88;;;7.00;99.90;;;;;;5033931;28;20279;-81
2022/01/18 09:49:22;;;;;;;3.58;2.33;;;6.80;99.90;;;;;;5034816;28;20081;-81
2022/01/18 09:51:48;;;;;;;3.72;2.03;;;6.70;99.90;;;;;;5034388;28;20079;-81
2022/01/18 09:54:14;;;;;;;8.02;1.10;;;7.10;99.90;;;;;;5035948;28;20495;-81
2022/01/18 09:56:39;;;;;;;5.10;0.77;;;7.00;99.90;;;;;;5031834;28;20025;-81
2022/01/18 09:59:06;;;;;;;3.72;0.80;;;6.90;99.90;;;;;;5051764;28;20024;-82
2022/01/18 10:01:32;;;;;;;7.32;1.08;;;7.10;99.90;;;;;;5051394;28;20037;-81
2022/01/18 10:04:19;;;;;;;16.10;1.38;;;7.00;99.90;;;;;;5052647;28;20017;-81
2022/01/18 10:06:54;;;;;;;14.50;1.48;;;6.80;99.90;;;;;;5052109;28;20017;-81
2022/01/18 10:09:20;;;;;;;20.42;2.00;;;6.90;99.90;;;;;;5051329;28;20051;-81
2022/01/18 10:12:10;;;;;;;9.38;1.63;;;7.00;99.90;;;;;;5052569;28;20029;-81
2022/01/18 10:14:38;;;;;;;6.18;1.48;;;6.80;99.90;;;;;;5051757;28;20025;-82
2022/01/18 10:17:05;;;;;;;12.15;1.45;;;7.00;99.90;;;;;;5051319;28;20033;-81
2022/01/18 10:19:47;;;;;;;13.90;1.42;;;7.00;99.90;;;;;;5051226;28;20021;-81
2022/01/18 10:22:26;;;;;;;11.60;1.35;;;7.00;99.90;;;;;;5052943;28;20036;-81
2022/01/18 10:24:55;;;;;;;8.15;1.20;;;6.90;99.90;;;;;;5051057;28;20040;-82
2022/01/18 10:27:20;;;;;;;7.35;1.10;;;7.00;99.90;;;;;;5051338;28;20482;-81
2022/01/18 10:29:49;;;;;;;6.20;1.20;;;7.00;99.90;;;;;;5052123;28;20108;-81
2022/01/18 10:37:25;;;;;;;4.45;1.60;;;7.10;99.90;;;;;;5052656;28;20025;-81
2022/01/18 10:39:56;;;;;;;6.10;2.80;;;7.20;99.90;;;;;;5050774;28;20021;-81
2022/01/18 10:42:32;;;;;;;8.82;2.40;;;7.10;99.90;;;;;;5050859;28;20037;-81
2022/01/18 10:45:09;;;;;;;6.05;1.65;;;7.10;99.90;;;;;;5052224;28;20021;-81
2022/01/18 10:47:37;;;;;;;12.23;2.50;;;7.10;99.90;;;;;;5052355;28;20021;-81
2022/01/18 10:50:12;;;;;;;14.05;2.58;;;6.90;99.90;;;;;;5050775;28;20523;-81
2022/01/18 10:52:39;;;;;;;10.48;3.15;;;7.10;99.90;;;;;;5050547;28;20029;-81
2022/01/18 10:55:05;;;;;;;8.65;2.35;;;7.10;99.90;;;;;;5050864;28;20028;-81
2022/01/18 10:57:36;;;;;;;6.20;1.92;;;7.30;99.90;;;;;;5050737;28;20021;-81
2022/01/18 11:00:11;;;;;;;5.18;2.22;;;7.40;99.90;;;;;;5051983;28;20025;-81
2022/01/18 11:02:45;;;;;;;5.05;2.47;;;7.40;99.90;;;;;;5050620;28;20021;-81
2022/01/18 11:05:19;;;;;;;7.28;2.88;;;7.40;99.90;;;;;;5052223;28;20095;-81
2022/01/18 11:07:47;;;;;;;16.33;4.03;;;7.30;99.90;;;;;;5050778;28;20488;-81
2022/01/18 11:10:15;;;;;;;14.73;4.15;;;7.40;99.90;;;;;;5050512;28;20013;-81
2022/01/18 11:12:45;;;;;;;13.07;4.00;;;7.30;99.90;;;;;;5051864;28;20045;-81
2022/01/18 11:15:16;;;;;;;9.52;3.40;;;7.20;99.90;;;;;;5050373;28;20171;-81
2022/01/18 11:17:49;;;;;;;13.05;3.13;;;7.00;99.90;;;;;;5050434;28;20044;-81
2022/01/18 11:20:16;;;;;;;5.00;2.20;;;7.00;99.90;;;;;;5050048;28;20036;-81
2022/01/18 11:22:42;;;;;;;11.20;2.83;;;7.20;99.90;;;;;;5051379;28;20056;-82
2022/01/18 11:25:09;;;;;;;15.18;3.53;;;7.30;99.90;;;;;;5051650;28;20100;-81
2022/01/18 11:27:35;;;;;;;9.60;2.92;;;7.10;99.90;;;;;;5050355;28;20174;-81
2022/01/18 11:30:06;;;;;;;11.15;2.35;;;7.10;99.90;;;;;;5050328;28;20032;-81
2022/01/18 11:32:32;;;;;;;7.55;3.05;;;7.30;99.90;;;;;;5050138;28;20109;-81
2022/01/18 11:35:02;;;;;;;8.65;3.33;;;7.20;99.90;;;;;;5050173;28;20072;-81
2022/01/18 11:37:47;;;;;;;;;;;7.40;99.90;;;;;;5050312;28;20066;-81
2022/01/18 11:40:16;;;;;;;8.60;2.90;;;7.30;99.90;;;;;;5049909;28;19908;-81
2022/01/18 11:42:53;;;;;;;8.70;3.40;;;7.20;99.90;;;;;;5049889;28;20013;-81
2022/01/18 11:45:25;;;;;;;9.88;3.00;;;7.30;99.90;;;;;;5050020;28;20477;-81
2022/01/18 11:48:00;;;;;;;10.18;2.83;;;7.30;99.90;;;;;;5050021;28;20029;-81
2022/01/18 11:50:30;;;;;;;8.02;2.42;;;7.40;99.90;;;;;;5049400;28;20496;-81
2022/01/18 11:53:23;;;;;;;36.42;3.90;;;7.20;99.90;;;;;;5050528;28;20362;-81
2022/01/18 11:55:50;;;;;;;11.27;2.75;;;7.30;99.90;;;;;;5045844;28;20159;-81
2022/01/18 11:58:16;;;;;;;8.85;3.22;;;7.30;99.90;;;;;;5051072;28;20108;-81
2022/01/18 12:00:50;;;;;;;8.38;3.17;;;7.20;99.90;;;;;;5052361;28;20052;-82
2022/01/18 12:03:25;;;;;;;11.00;2.75;;;7.10;99.90;;;;;;5033660;28;20025;-81
2022/01/18 12:05:52;;;;;;;42.20;4.35;;;7.20;99.90;;;;;;5041886;28;20025;-81
2022/01/18 12:08:35;;;;;;;33.08;4.10;;;7.20;99.90;;;;;;5029482;28;20070;-81
2022/01/18 12:11:03;;;;;;;19.02;3.10;;;7.00;99.90;;;;;;5062326;28;20097;-81
2022/01/18 12:13:42;;;;;;;6.22;2.75;;;7.20;99.90;;;;;;5030974;28;20042;-82
2022/01/18 12:16:18;;;;;;;26.45;4.15;;;7.30;99.90;;;;;;5035875;28;20029;-82
2022/01/18 12:18:59;;;;;;;12.02;3.55;;;7.10;99.90;;;;;;5032310;28;20432;-81
2022/01/18 12:21:28;;;;;;;7.32;3.65;;;7.20;99.90;;;;;;5070648;28;20389;-81
2022/01/18 12:23:56;;;;;;;22.50;4.63;;;7.30;99.90;;;;;;5033195;28;20047;-82
2022/01/18 12:32:20;;;;;;;11.40;5.15;;;7.20;99.90;;;;;;5030819;28;20064;-82
2022/01/18 12:34:48;;;;;;;14.05;4.60;;;7.30;99.90;;;;;;5034845;28;20071;-82
2022/01/18 12:37:16;;;;;;;18.30;5.25;;;7.20;99.90;;;;;;5034190;28;20058;-81
2022/01/18 12:40:10;;;;;;;13.10;5.72;;;7.20;99.90;;;;;;5030773;28;20111;-81
2022/01/18 12:45:22;;;;;;;16.05;6.20;;;7.20;99.90;;;;;;5041558;28;20026;-81
2022/01/18 12:47:59;;;;;;;13.25;6.68;;;7.10;99.90;;;;;;5038950;28;20546;-82
2022/01/18 12:50:27;;;;;;;17.25;5.75;;;7.10;99.90;;;;;;5038082;28;20037;-82
2022/01/18 12:52:58;;;;;;;17.95;7.03;;;7.00;99.90;;;;;;5032741;28;20491;-81
2022/01/18 12:55:44;;;;;;;18.35;6.38;;;7.10;99.90;;;;;;5031985;28;20029;-81
2022/01/18 12:58:12;;;;;;;19.40;5.88;;;7.00;99.90;;;;;;5037517;28;20437;-81
2022/01/18 13:00:42;;;;;;;17.20;6.53;;;7.00;99.90;;;;;;5050788;28;20395;-81
2022/01/18 13:03:08;;;;;;;13.15;5.93;;;7.10;99.90;;;;;;5038893;28;20384;-81
2022/01/18 13:05:42;;;;;;;17.30;5.95;;;7.20;99.90;;;;;;5053373;28;20443;-81
2022/01/18 13:08:10;;;;;;;11.73;5.43;;;7.20;99.90;;;;;;5056599;28;20477;-81
2022/01/18 13:10:45;;;;;;;12.23;5.38;;;7.10;99.90;;;;;;5055014;28;20033;-82
2022/01/18 13:13:57;;;;;;;11.68;5.35;;;7.10;99.90;;;;;;5054871;28;20127;-81
2022/01/18 13:27:26;;;;;;;15.02;5.03;;;6.90;99.90;;;;;;5050059;28;20114;-82
2022/01/18 13:29:54;;;;;;;10.57;3.95;;;6.80;99.90;;;;;;5056756;28;20025;-82
2022/01/18 13:32:26;;;;;;;19.17;5.03;;;6.60;99.90;;;;;;5054687;28;20595;-82
2022/01/18 13:34:55;;;;;;;11.10;4.63;;;6.70;99.90;;;;;;5053986;28;20044;-82
2022/01/18 13:37:26;;;;;;;11.90;4.30;;;6.70;99.90;;;;;;5052072;28;20033;-83
2022/01/18 13:39:56;;;;;;;11.48;5.10;;;6.70;99.90;;;;;;5053931;28;20300;-82
2022/01/18 13:42:28;;;;;;;9.02;4.32;;;6.70;99.90;;;;;;5051855;28;20021;-82
2022/01/18 13:45:25;;;;;;;8.55;4.28;;;6.60;99.90;;;;;;5052188;28;20033;-83
2022/01/18 13:47:58;;;;;;;12.80;4.25;;;6.50;99.90;;;;;;5044462;28;20033;-81
2022/01/18 13:50:38;;;;;;;13.43;4.32;;;6.40;99.90;;;;;;5052541;28;20056;-81
2022/01/18 13:53:27;;;;;;;11.55;4.78;;;6.40;99.90;;;;;;5052546;28;20036;-81
2022/01/18 13:55:59;;;;;;;9.18;4.78;;;6.30;99.90;;;;;;5046402;28;20543;-82
2022/01/18 13:58:33;;;;;;;16.23;5.57;;;6.30;99.90;;;;;;5033696;28;20033;-82
2022/01/18 14:01:21;;;;;;;9.25;4.72;;;6.50;99.90;;;;;;5032823;28;20387;-81
2022/01/18 14:03:49;;;;;;;13.43;4.55;;;6.40;99.90;;;;;;5045303;28;20018;-82
2022/01/18 14:06:16;;;;;;;13.35;4.95;;;6.30;99.90;;;;;;5037844;28;20123;-82
2022/01/18 14:08:50;;;;;;;7.45;3.70;;;6.30;99.90;;;;;;5030884;28;20112;-82
2022/01/18 14:11:20;;;;;;;9.13;4.22;;;6.10;99.90;;;;;;5037685;28;20033;-82
2022/01/18 14:13:47;;;;;;;14.52;4.70;;;6.20;99.90;;;;;;5063869;28;20046;-82
2022/01/18 14:16:31;;;;;;;11.93;4.82;;;6.20;99.90;;;;;;5034332;28;20493;-82
2022/01/18 14:18:58;;;;;;;8.65;4.30;;;6.10;99.90;;;;;;5032836;28;20024;-81
2022/01/18 14:21:28;;;;;;;9.43;4.88;;;6.10;99.90;;;;;;5033874;28;20388;-82
2022/01/18 14:24:06;;;;;;;9.52;5.15;;;6.10;99.90;;;;;;5046163;28;20044;-82
2022/01/18 14:26:35;;;;;;;12.57;5.10;;;6.00;99.90;;;;;;5036607;28;20097;-82
2022/01/18 14:29:03;;;;;;;9.80;5.07;;;6.00;99.90;;;;;;5048224;28;20033;-82
2022/01/18 14:31:29;;;;;;;12.43;5.90;;;6.20;99.90;;;;;;5032594;28;20112;-83
2022/01/18 14:33:54;;;;;;;16.02;6.10;;;6.10;99.90;;;;;;5051801;28;20055;-82
2022/01/18 14:36:20;;;;;;;11.85;6.35;;;6.00;99.90;;;;;;5048860;28;20047;-82